»·PEaware :: N172SP L88-KSBP

N172SP :: L88-KSBP

FLIGHT INFORMATION

Flight Status: Arrived
Operator: Privately registered:
United States
More flights under this callsign
Pilot: Anonymous 37738 (37738)
Aircraft: CESSNA 172 SKYHAWK
(C172)
More flights by this aircraft type
Origin: L88 New Cuyama
United States
Destination: KSBP San Luis Co Regl
United States
More flights between these airports :: More routes between these airports
Route:
File this flight plan on PilotEdge
Remarks:
Altitude:
(Current/Filed)
4,500ft
Speed:
(Current/Filed)
120kts
Departed: 31-Oct-23 04:45 PM
Arrived: 31-Oct-23 05:16 PM
Distance/Time
Traveled:
50nm/0:31
Distance/Time
To Go:
Arrived

Flight Plot

Page will automatically refresh every two minutes.


Map Options




Map Legend


Flown Route
Filed Route
Departure Airport
Arrival Airport
Navaid (VOR, NDB)
Fix

Horizontal Profiles

Position Reports

Time Latitude Longitude Heading Altitude Ground
Speed
31-Oct-23 16:10 34.942854 -119.690286 204 2155ft 0kts
31-Oct-23 16:11 34.942854 -119.690287 204 2155ft 0kts
31-Oct-23 16:12 34.942854 -119.690287 204 2155ft 0kts
31-Oct-23 16:13 34.942854 -119.690287 204 2155ft 0kts
31-Oct-23 16:14 34.942854 -119.690287 204 2155ft 0kts
31-Oct-23 16:15 34.942854 -119.690287 204 2155ft 0kts
31-Oct-23 16:16 34.942854 -119.690287 204 2155ft 0kts
31-Oct-23 16:17 34.942854 -119.690287 204 2155ft 0kts
31-Oct-23 16:18 34.942854 -119.690287 204 2155ft 0kts
31-Oct-23 16:19 34.942854 -119.690287 204 2155ft 0kts
31-Oct-23 16:20 34.942854 -119.690287 204 2155ft 0kts
31-Oct-23 16:21 34.942854 -119.690287 204 2155ft 0kts
31-Oct-23 16:22 34.942854 -119.690287 204 2155ft 0kts
31-Oct-23 16:23 34.942854 -119.690287 204 2155ft 0kts
31-Oct-23 16:24 34.942854 -119.690287 204 2155ft 0kts
31-Oct-23 16:25 34.942854 -119.690287 204 2155ft 0kts
31-Oct-23 16:26 34.942854 -119.690287 204 2155ft 0kts
31-Oct-23 16:27 34.942854 -119.690287 204 2155ft 0kts
31-Oct-23 16:28 34.942854 -119.690287 204 2155ft 0kts
31-Oct-23 16:29 34.942854 -119.690287 204 2155ft 0kts
31-Oct-23 16:30 34.942854 -119.690287 204 2155ft 0kts
31-Oct-23 16:36 34.942854 -119.690286 204 2155ft 0kts
31-Oct-23 16:37 34.942854 -119.690286 204 2155ft 0kts
31-Oct-23 16:38 34.942854 -119.690286 204 2155ft 0kts
31-Oct-23 16:39 34.942854 -119.690287 204 2155ft 0kts
31-Oct-23 16:40 34.942854 -119.690287 204 2155ft 0kts
31-Oct-23 16:41 34.942766 -119.690669 297 2155ft 6kts
31-Oct-23 16:42 34.942520 -119.691182 143 2154ft 0kts
31-Oct-23 16:43 34.942436 -119.691159 193 2154ft 1kts
31-Oct-23 16:44 34.936649 -119.676853 115 2462ft 79kts
31-Oct-23 16:45 34.928449 -119.651998 68 3239ft 79kts
31-Oct-23 16:46 34.944686 -119.634186 15 3980ft 80kts
31-Oct-23 16:47 34.960342 -119.650720 307 4598ft 93kts
31-Oct-23 16:48 34.969532 -119.684994 276 4641ft 116kts
31-Oct-23 16:49 34.972783 -119.725153 275 4611ft 120kts
31-Oct-23 16:50 34.976513 -119.765596 276 4602ft 120kts
31-Oct-23 16:51 34.987862 -119.803607 296 4592ft 119kts
31-Oct-23 16:52 35.001119 -119.840706 289 4588ft 119kts
31-Oct-23 16:53 35.016050 -119.876908 302 4568ft 119kts
31-Oct-23 16:54 35.032527 -119.911780 298 4567ft 119kts
31-Oct-23 16:55 35.047053 -119.947523 295 4615ft 117kts
31-Oct-23 16:56 35.059816 -119.984026 293 4656ft 117kts
31-Oct-23 16:57 35.074566 -120.017548 302 4682ft 117kts
31-Oct-23 16:58 35.091233 -120.051680 300 4720ft 116kts
31-Oct-23 16:59 35.107386 -120.087227 298 4650ft 119kts
31-Oct-23 17:00 35.123563 -120.122897 300 4576ft 120kts
31-Oct-23 17:01 35.139561 -120.157657 295 4607ft 119kts
31-Oct-23 17:02 35.143536 -120.197897 270 4590ft 121kts
31-Oct-23 17:03 35.141830 -120.238893 272 4599ft 121kts
31-Oct-23 17:04 35.147641 -120.279220 279 4616ft 120kts
31-Oct-23 17:05 35.148306 -120.320025 271 4626ft 121kts
31-Oct-23 17:06 35.151414 -120.360732 276 4442ft 121kts
31-Oct-23 17:07 35.156458 -120.401210 280 4124ft 120kts
31-Oct-23 17:08 35.161630 -120.441706 279 3787ft 120kts
31-Oct-23 17:09 35.167043 -120.482072 288 3354ft 120kts
31-Oct-23 17:10 35.174467 -120.520812 277 2888ft 116kts
31-Oct-23 17:11 35.187622 -120.555607 310 2351ft 116kts
31-Oct-23 17:12 35.206000 -120.586724 304 1701ft 91kts
31-Oct-23 17:13 35.220151 -120.610871 301 1185ft 76kts
31-Oct-23 17:14 35.231502 -120.630731 304 455ft 69kts
31-Oct-23 17:15 35.237541 -120.639916 357 191ft 3kts
31-Oct-23 17:16 35.237569 -120.639917 357 191ft 0kts
31-Oct-23 17:17 35.238578 -120.640099 65 190ft 8kts
31-Oct-23 17:18 35.238612 -120.639705 78 192ft 0kts
31-Oct-23 17:19 35.238612 -120.639705 78 192ft 0kts
31-Oct-23 17:20 35.238612 -120.639705 78 192ft 0kts
31-Oct-23 17:21 35.238612 -120.639705 78 192ft 0kts
31-Oct-23 17:22 35.238612 -120.639705 78 192ft 0kts
31-Oct-23 17:23 35.238612 -120.639705 78 192ft 0kts
31-Oct-23 17:24 35.238612 -120.639705 78 192ft 0kts

Navigation Log

Ident Type
Flight plan parsing failed, navigation log unavailable